sensor_id;sensor_type;location;lat;lon;timestamp;P1;durP1;ratioP1;P2;durP2;ratioP2
26536;SDS011;14204;51.262;5.488;2023-02-18T00:02:03;18.27;;;14.23;;
26536;SDS011;14204;51.262;5.488;2023-02-18T00:04:29;21.45;;;14.35;;
26536;SDS011;14204;51.262;5.488;2023-02-18T00:06:55;18.25;;;14.60;;
26536;SDS011;14204;51.262;5.488;2023-02-18T00:09:21;19.77;;;14.23;;
26536;SDS011;14204;51.262;5.488;2023-02-18T00:11:46;18.27;;;13.77;;
26536;SDS011;14204;51.262;5.488;2023-02-18T00:14:13;19.23;;;14.10;;
26536;SDS011;14204;51.262;5.488;2023-02-18T00:16:40;18.98;;;13.25;;
26536;SDS011;14204;51.262;5.488;2023-02-18T00:19:07;20.33;;;14.43;;
26536;SDS011;14204;51.262;5.488;2023-02-18T00:21:36;19.65;;;13.80;;
26536;SDS011;14204;51.262;5.488;2023-02-18T00:24:02;17.75;;;13.27;;
26536;SDS011;14204;51.262;5.488;2023-02-18T00:26:32;21.75;;;14.20;;
26536;SDS011;14204;51.262;5.488;2023-02-18T00:28:58;19.95;;;14.80;;
26536;SDS011;14204;51.262;5.488;2023-02-18T00:31:29;21.00;;;15.95;;
26536;SDS011;14204;51.262;5.488;2023-02-18T00:36:23;24.55;;;16.33;;
26536;SDS011;14204;51.262;5.488;2023-02-18T00:38:51;22.10;;;16.48;;
26536;SDS011;14204;51.262;5.488;2023-02-18T00:41:21;24.83;;;17.73;;
26536;SDS011;14204;51.262;5.488;2023-02-18T00:43:48;25.25;;;18.52;;
26536;SDS011;14204;51.262;5.488;2023-02-18T00:46:13;21.17;;;16.08;;
26536;SDS011;14204;51.262;5.488;2023-02-18T00:48:40;29.52;;;17.20;;
26536;SDS011;14204;51.262;5.488;2023-02-18T00:51:06;26.73;;;17.95;;
26536;SDS011;14204;51.262;5.488;2023-02-18T00:53:32;31.42;;;20.17;;
26536;SDS011;14204;51.262;5.488;2023-02-18T00:55:59;29.98;;;19.25;;
26536;SDS011;14204;51.262;5.488;2023-02-18T00:58:25;27.88;;;19.33;;
26536;SDS011;14204;51.262;5.488;2023-02-18T01:00:51;25.15;;;17.80;;
26536;SDS011;14204;51.262;5.488;2023-02-18T01:03:17;26.17;;;18.08;;
26536;SDS011;14204;51.262;5.488;2023-02-18T01:05:43;26.63;;;17.85;;
26536;SDS011;14204;51.262;5.488;2023-02-18T01:08:09;32.13;;;20.02;;
26536;SDS011;14204;51.262;5.488;2023-02-18T01:10:36;25.58;;;17.90;;
26536;SDS011;14204;51.262;5.488;2023-02-18T01:13:06;25.88;;;18.10;;
26536;SDS011;14204;51.262;5.488;2023-02-18T01:15:32;24.90;;;17.33;;
26536;SDS011;14204;51.262;5.488;2023-02-18T01:17:58;34.72;;;19.40;;
26536;SDS011;14204;51.262;5.488;2023-02-18T01:20:25;28.55;;;18.42;;
26536;SDS011;14204;51.262;5.488;2023-02-18T01:22:51;29.52;;;18.70;;
26536;SDS011;14204;51.262;5.488;2023-02-18T01:25:17;39.47;;;21.63;;
26536;SDS011;14204;51.262;5.488;2023-02-18T01:27:42;34.35;;;19.95;;
26536;SDS011;14204;51.262;5.488;2023-02-18T01:30:09;39.25;;;22.33;;
26536;SDS011;14204;51.262;5.488;2023-02-18T01:32:38;39.20;;;22.80;;
26536;SDS011;14204;51.262;5.488;2023-02-18T01:35:04;35.50;;;22.15;;
26536;SDS011;14204;51.262;5.488;2023-02-18T01:37:31;37.78;;;23.23;;
26536;SDS011;14204;51.262;5.488;2023-02-18T01:39:57;43.35;;;23.55;;
26536;SDS011;14204;51.262;5.488;2023-02-18T01:42:24;40.55;;;22.38;;
26536;SDS011;14204;51.262;5.488;2023-02-18T01:44:51;40.15;;;24.08;;
26536;SDS011;14204;51.262;5.488;2023-02-18T01:47:17;41.50;;;23.45;;
26536;SDS011;14204;51.262;5.488;2023-02-18T01:49:44;42.45;;;22.73;;
26536;SDS011;14204;51.262;5.488;2023-02-18T01:52:14;40.92;;;23.88;;
26536;SDS011;14204;51.262;5.488;2023-02-18T01:54:44;36.55;;;21.00;;
26536;SDS011;14204;51.262;5.488;2023-02-18T01:57:19;37.08;;;22.48;;
26536;SDS011;14204;51.262;5.488;2023-02-18T02:00:20;37.75;;;21.90;;
26536;SDS011;14204;51.262;5.488;2023-02-18T02:02:41;34.40;;;20.17;;
26536;SDS011;14204;51.262;5.488;2023-02-18T02:05:09;31.25;;;19.20;;
26536;SDS011;14204;51.262;5.488;2023-02-18T02:07:35;37.45;;;21.10;;
26536;SDS011;14204;51.262;5.488;2023-02-18T02:10:01;39.47;;;20.90;;
26536;SDS011;14204;51.262;5.488;2023-02-18T02:32:51;28.38;;;15.15;;
26536;SDS011;14204;51.262;5.488;2023-02-18T02:38:30;26.92;;;14.90;;
26536;SDS011;14204;51.262;5.488;2023-02-18T02:44:11;24.85;;;13.65;;
26536;SDS011;14204;51.262;5.488;2023-02-18T02:46:50;26.80;;;13.77;;
26536;SDS011;14204;51.262;5.488;2023-02-18T02:52:30;21.80;;;12.80;;
26536;SDS011;14204;51.262;5.488;2023-02-18T02:54:58;19.63;;;11.55;;
26536;SDS011;14204;51.262;5.488;2023-02-18T02:59:51;21.63;;;12.30;;
26536;SDS011;14204;51.262;5.488;2023-02-18T03:02:24;16.08;;;10.38;;
26536;SDS011;14204;51.262;5.488;2023-02-18T03:11:04;15.05;;;7.88;;
26536;SDS011;14204;51.262;5.488;2023-02-18T03:16:35;9.45;;;6.43;;
26536;SDS011;14204;51.262;5.488;2023-02-18T03:19:29;9.93;;;6.40;;
26536;SDS011;14204;51.262;5.488;2023-02-18T03:27:03;7.82;;;5.07;;
26536;SDS011;14204;51.262;5.488;2023-02-18T03:29:33;8.38;;;5.30;;
26536;SDS011;14204;51.262;5.488;2023-02-18T03:32:01;8.40;;;4.90;;
26536;SDS011;14204;51.262;5.488;2023-02-18T03:34:30;7.43;;;4.90;;
26536;SDS011;14204;51.262;5.488;2023-02-18T03:36:59;7.20;;;4.32;;
26536;SDS011;14204;51.262;5.488;2023-02-18T03:39:26;6.43;;;3.92;;
26536;SDS011;14204;51.262;5.488;2023-02-18T03:41:54;4.47;;;3.42;;
26536;SDS011;14204;51.262;5.488;2023-02-18T03:44:20;4.03;;;3.22;;
26536;SDS011;14204;51.262;5.488;2023-02-18T03:46:48;4.13;;;2.97;;
26536;SDS011;14204;51.262;5.488;2023-02-18T03:49:13;4.88;;;2.67;;
26536;SDS011;14204;51.262;5.488;2023-02-18T03:51:40;3.13;;;2.35;;
26536;SDS011;14204;51.262;5.488;2023-02-18T03:54:06;3.00;;;2.17;;
26536;SDS011;14204;51.262;5.488;2023-02-18T03:56:32;2.95;;;2.42;;
26536;SDS011;14204;51.262;5.488;2023-02-18T03:58:59;3.05;;;2.10;;
26536;SDS011;14204;51.262;5.488;2023-02-18T04:01:24;3.55;;;2.30;;
26536;SDS011;14204;51.262;5.488;2023-02-18T04:03:50;2.55;;;2.05;;
26536;SDS011;14204;51.262;5.488;2023-02-18T04:06:16;3.70;;;2.10;;
26536;SDS011;14204;51.262;5.488;2023-02-18T04:08:42;3.33;;;1.80;;
26536;SDS011;14204;51.262;5.488;2023-02-18T04:11:08;2.50;;;1.80;;
26536;SDS011;14204;51.262;5.488;2023-02-18T04:13:33;2.08;;;1.88;;
26536;SDS011;14204;51.262;5.488;2023-02-18T04:15:59;2.20;;;2.00;;
26536;SDS011;14204;51.262;5.488;2023-02-18T04:18:25;2.47;;;2.28;;
26536;SDS011;14204;51.262;5.488;2023-02-18T04:20:50;2.42;;;2.20;;
26536;SDS011;14204;51.262;5.488;2023-02-18T04:23:16;1.98;;;1.77;;
26536;SDS011;14204;51.262;5.488;2023-02-18T04:25:42;2.40;;;2.05;;
26536;SDS011;14204;51.262;5.488;2023-02-18T04:28:08;2.65;;;1.90;;
26536;SDS011;14204;51.262;5.488;2023-02-18T04:30:37;1.60;;;1.50;;
26536;SDS011;14204;51.262;5.488;2023-02-18T04:33:03;1.90;;;1.67;;
26536;SDS011;14204;51.262;5.488;2023-02-18T04:35:28;2.33;;;1.55;;
26536;SDS011;14204;51.262;5.488;2023-02-18T04:37:54;1.60;;;1.50;;
26536;SDS011;14204;51.262;5.488;2023-02-18T04:40:19;1.90;;;1.70;;
26536;SDS011;14204;51.262;5.488;2023-02-18T04:42:45;1.50;;;1.38;;
26536;SDS011;14204;51.262;5.488;2023-02-18T04:45:11;1.48;;;1.38;;
26536;SDS011;14204;51.262;5.488;2023-02-18T04:47:36;1.42;;;1.33;;
26536;SDS011;14204;51.262;5.488;2023-02-18T04:50:02;1.33;;;1.23;;
26536;SDS011;14204;51.262;5.488;2023-02-18T04:52:28;3.63;;;1.70;;
26536;SDS011;14204;51.262;5.488;2023-02-18T04:54:53;1.52;;;1.42;;
26536;SDS011;14204;51.262;5.488;2023-02-18T04:57:19;1.75;;;1.63;;
26536;SDS011;14204;51.262;5.488;2023-02-18T04:59:45;1.67;;;1.58;;
26536;SDS011;14204;51.262;5.488;2023-02-18T05:02:10;1.65;;;1.55;;
26536;SDS011;14204;51.262;5.488;2023-02-18T05:04:36;1.80;;;1.48;;
26536;SDS011;14204;51.262;5.488;2023-02-18T05:07:01;1.35;;;1.25;;
26536;SDS011;14204;51.262;5.488;2023-02-18T05:09:27;1.80;;;1.70;;
26536;SDS011;14204;51.262;5.488;2023-02-18T05:11:53;2.00;;;1.67;;
26536;SDS011;14204;51.262;5.488;2023-02-18T05:14:18;2.15;;;1.98;;
26536;SDS011;14204;51.262;5.488;2023-02-18T05:16:44;2.08;;;1.85;;
26536;SDS011;14204;51.262;5.488;2023-02-18T05:19:12;4.97;;;2.33;;
26536;SDS011;14204;51.262;5.488;2023-02-18T05:21:39;2.10;;;1.90;;
26536;SDS011;14204;51.262;5.488;2023-02-18T05:24:05;2.35;;;2.15;;
26536;SDS011;14204;51.262;5.488;2023-02-18T05:26:30;3.10;;;2.33;;
26536;SDS011;14204;51.262;5.488;2023-02-18T05:28:56;2.47;;;2.20;;
26536;SDS011;14204;51.262;5.488;2023-02-18T05:31:22;3.05;;;2.08;;
26536;SDS011;14204;51.262;5.488;2023-02-18T05:33:47;4.65;;;2.40;;
26536;SDS011;14204;51.262;5.488;2023-02-18T05:36:13;2.60;;;2.10;;
26536;SDS011;14204;51.262;5.488;2023-02-18T05:38:39;1.83;;;1.52;;
26536;SDS011;14204;51.262;5.488;2023-02-18T05:41:04;2.50;;;1.83;;
26536;SDS011;14204;51.262;5.488;2023-02-18T05:43:30;1.70;;;1.60;;
26536;SDS011;14204;51.262;5.488;2023-02-18T05:46:16;2.38;;;1.80;;
26536;SDS011;14204;51.262;5.488;2023-02-18T05:48:41;2.05;;;1.85;;
26536;SDS011;14204;51.262;5.488;2023-02-18T05:51:07;2.63;;;2.22;;
26536;SDS011;14204;51.262;5.488;2023-02-18T05:53:32;2.30;;;1.90;;
26536;SDS011;14204;51.262;5.488;2023-02-18T05:55:58;2.33;;;2.03;;
26536;SDS011;14204;51.262;5.488;2023-02-18T05:58:24;3.58;;;2.20;;
26536;SDS011;14204;51.262;5.488;2023-02-18T06:00:49;2.20;;;2.00;;
26536;SDS011;14204;51.262;5.488;2023-02-18T06:03:15;2.90;;;2.38;;
26536;SDS011;14204;51.262;5.488;2023-02-18T06:05:41;4.18;;;2.22;;
26536;SDS011;14204;51.262;5.488;2023-02-18T06:08:06;2.58;;;2.35;;
26536;SDS011;14204;51.262;5.488;2023-02-18T06:10:32;2.80;;;1.95;;
26536;SDS011;14204;51.262;5.488;2023-02-18T06:12:57;2.97;;;2.40;;
26536;SDS011;14204;51.262;5.488;2023-02-18T06:15:25;2.90;;;2.60;;
26536;SDS011;14204;51.262;5.488;2023-02-18T06:17:50;3.80;;;2.10;;
26536;SDS011;14204;51.262;5.488;2023-02-18T06:20:16;2.40;;;2.20;;
26536;SDS011;14204;51.262;5.488;2023-02-18T06:22:42;2.53;;;2.20;;
26536;SDS011;14204;51.262;5.488;2023-02-18T06:25:07;4.30;;;2.58;;
26536;SDS011;14204;51.262;5.488;2023-02-18T06:27:33;2.55;;;2.35;;
26536;SDS011;14204;51.262;5.488;2023-02-18T06:29:58;1.85;;;1.75;;
26536;SDS011;14204;51.262;5.488;2023-02-18T06:32:24;3.85;;;2.10;;
26536;SDS011;14204;51.262;5.488;2023-02-18T06:34:50;4.07;;;2.13;;
26536;SDS011;14204;51.262;5.488;2023-02-18T06:37:15;1.85;;;1.70;;
26536;SDS011;14204;51.262;5.488;2023-02-18T06:39:41;2.08;;;1.88;;
26536;SDS011;14204;51.262;5.488;2023-02-18T06:42:07;3.20;;;2.03;;
26536;SDS011;14204;51.262;5.488;2023-02-18T06:44:32;1.60;;;1.50;;
26536;SDS011;14204;51.262;5.488;2023-02-18T06:46:58;1.70;;;1.55;;
26536;SDS011;14204;51.262;5.488;2023-02-18T06:49:24;2.50;;;1.40;;
26536;SDS011;14204;51.262;5.488;2023-02-18T06:51:49;2.30;;;1.48;;
26536;SDS011;14204;51.262;5.488;2023-02-18T06:54:15;1.70;;;1.45;;
26536;SDS011;14204;51.262;5.488;2023-02-18T06:56:41;3.35;;;1.70;;
26536;SDS011;14204;51.262;5.488;2023-02-18T06:59:06;3.13;;;1.67;;
26536;SDS011;14204;51.262;5.488;2023-02-18T07:01:32;5.85;;;1.77;;
26536;SDS011;14204;51.262;5.488;2023-02-18T07:03:58;4.78;;;1.92;;
26536;SDS011;14204;51.262;5.488;2023-02-18T07:06:23;6.60;;;3.20;;
26536;SDS011;14204;51.262;5.488;2023-02-18T07:08:49;5.25;;;2.97;;
26536;SDS011;14204;51.262;5.488;2023-02-18T07:11:14;6.00;;;2.97;;
26536;SDS011;14204;51.262;5.488;2023-02-18T07:13:40;5.95;;;2.72;;
26536;SDS011;14204;51.262;5.488;2023-02-18T07:16:06;7.13;;;2.45;;
26536;SDS011;14204;51.262;5.488;2023-02-18T07:18:31;5.93;;;2.78;;
26536;SDS011;14204;51.262;5.488;2023-02-18T07:20:57;7.10;;;3.53;;
26536;SDS011;14204;51.262;5.488;2023-02-18T07:23:22;6.57;;;3.28;;
26536;SDS011;14204;51.262;5.488;2023-02-18T07:25:48;7.82;;;3.58;;
26536;SDS011;14204;51.262;5.488;2023-02-18T07:28:13;11.32;;;3.55;;
26536;SDS011;14204;51.262;5.488;2023-02-18T07:30:40;11.73;;;3.25;;
26536;SDS011;14204;51.262;5.488;2023-02-18T07:33:05;8.25;;;3.67;;
26536;SDS011;14204;51.262;5.488;2023-02-18T07:35:31;6.20;;;2.90;;
26536;SDS011;14204;51.262;5.488;2023-02-18T07:37:57;12.85;;;2.60;;
26536;SDS011;14204;51.262;5.488;2023-02-18T07:40:22;11.88;;;3.00;;
26536;SDS011;14204;51.262;5.488;2023-02-18T07:42:48;12.20;;;3.65;;
26536;SDS011;14204;51.262;5.488;2023-02-18T07:45:14;9.88;;;2.80;;
26536;SDS011;14204;51.262;5.488;2023-02-18T07:47:40;12.93;;;3.47;;
26536;SDS011;14204;51.262;5.488;2023-02-18T07:50:06;14.15;;;3.13;;
26536;SDS011;14204;51.262;5.488;2023-02-18T07:52:33;8.82;;;2.90;;
26536;SDS011;14204;51.262;5.488;2023-02-18T07:54:58;11.13;;;3.42;;
26536;SDS011;14204;51.262;5.488;2023-02-18T07:57:24;12.70;;;3.05;;
26536;SDS011;14204;51.262;5.488;2023-02-18T07:59:50;9.88;;;3.20;;
26536;SDS011;14204;51.262;5.488;2023-02-18T08:02:16;12.15;;;2.97;;
26536;SDS011;14204;51.262;5.488;2023-02-18T08:04:44;12.43;;;3.47;;
26536;SDS011;14204;51.262;5.488;2023-02-18T08:07:13;19.48;;;3.35;;
26536;SDS011;14204;51.262;5.488;2023-02-18T08:09:41;13.00;;;3.20;;
26536;SDS011;14204;51.262;5.488;2023-02-18T08:12:07;15.07;;;3.70;;
26536;SDS011;14204;51.262;5.488;2023-02-18T08:14:33;16.20;;;3.92;;
26536;SDS011;14204;51.262;5.488;2023-02-18T08:16:58;12.20;;;2.97;;
26536;SDS011;14204;51.262;5.488;2023-02-18T08:19:24;12.32;;;3.05;;
26536;SDS011;14204;51.262;5.488;2023-02-18T08:21:50;13.10;;;3.53;;
26536;SDS011;14204;51.262;5.488;2023-02-18T08:24:15;13.98;;;2.63;;
26536;SDS011;14204;51.262;5.488;2023-02-18T08:26:41;13.65;;;3.00;;
26536;SDS011;14204;51.262;5.488;2023-02-18T08:29:06;14.82;;;3.13;;
26536;SDS011;14204;51.262;5.488;2023-02-18T08:31:32;13.38;;;3.15;;
26536;SDS011;14204;51.262;5.488;2023-02-18T08:33:58;10.63;;;2.88;;
26536;SDS011;14204;51.262;5.488;2023-02-18T08:36:24;13.80;;;3.15;;
26536;SDS011;14204;51.262;5.488;2023-02-18T08:38:51;15.95;;;2.85;;
26536;SDS011;14204;51.262;5.488;2023-02-18T08:41:16;13.48;;;2.70;;
26536;SDS011;14204;51.262;5.488;2023-02-18T08:43:45;11.70;;;2.33;;
26536;SDS011;14204;51.262;5.488;2023-02-18T08:46:11;11.10;;;2.80;;
26536;SDS011;14204;51.262;5.488;2023-02-18T08:48:37;16.80;;;2.88;;
26536;SDS011;14204;51.262;5.488;2023-02-18T08:51:10;12.88;;;3.25;;
26536;SDS011;14204;51.262;5.488;2023-02-18T08:53:37;11.38;;;2.90;;
26536;SDS011;14204;51.262;5.488;2023-02-18T08:56:06;12.68;;;3.08;;
26536;SDS011;14204;51.262;5.488;2023-02-18T08:58:33;14.25;;;2.70;;
26536;SDS011;14204;51.262;5.488;2023-02-18T09:01:01;9.82;;;2.65;;
26536;SDS011;14204;51.262;5.488;2023-02-18T09:03:29;13.95;;;3.25;;
26536;SDS011;14204;51.262;5.488;2023-02-18T09:05:55;15.93;;;3.13;;
26536;SDS011;14204;51.262;5.488;2023-02-18T09:08:21;7.63;;;2.80;;
26536;SDS011;14204;51.262;5.488;2023-02-18T09:10:46;9.77;;;2.67;;
26536;SDS011;14204;51.262;5.488;2023-02-18T09:13:12;15.57;;;2.90;;
26536;SDS011;14204;51.262;5.488;2023-02-18T09:15:38;15.60;;;2.97;;
26536;SDS011;14204;51.262;5.488;2023-02-18T09:18:03;14.07;;;3.03;;
26536;SDS011;14204;51.262;5.488;2023-02-18T09:20:29;12.82;;;3.58;;
26536;SDS011;14204;51.262;5.488;2023-02-18T09:22:54;10.50;;;2.63;;
26536;SDS011;14204;51.262;5.488;2023-02-18T09:25:21;12.85;;;2.70;;
26536;SDS011;14204;51.262;5.488;2023-02-18T09:27:47;14.60;;;3.53;;
26536;SDS011;14204;51.262;5.488;2023-02-18T09:30:12;12.27;;;2.60;;
26536;SDS011;14204;51.262;5.488;2023-02-18T09:32:38;12.35;;;3.65;;
26536;SDS011;14204;51.262;5.488;2023-02-18T09:35:04;11.27;;;3.03;;
26536;SDS011;14204;51.262;5.488;2023-02-18T09:37:29;10.27;;;2.70;;
26536;SDS011;14204;51.262;5.488;2023-02-18T09:39:55;9.57;;;2.42;;
26536;SDS011;14204;51.262;5.488;2023-02-18T09:42:23;8.88;;;2.25;;
26536;SDS011;14204;51.262;5.488;2023-02-18T09:44:55;12.15;;;3.28;;
26536;SDS011;14204;51.262;5.488;2023-02-18T09:50:11;12.80;;;2.85;;
26536;SDS011;14204;51.262;5.488;2023-02-18T09:52:43;9.85;;;3.03;;
26536;SDS011;14204;51.262;5.488;2023-02-18T09:55:16;10.90;;;2.85;;
26536;SDS011;14204;51.262;5.488;2023-02-18T09:57:53;9.95;;;2.55;;
26536;SDS011;14204;51.262;5.488;2023-02-18T10:00:31;9.35;;;2.42;;
26536;SDS011;14204;51.262;5.488;2023-02-18T10:05:37;13.60;;;3.25;;
26536;SDS011;14204;51.262;5.488;2023-02-18T10:08:10;11.52;;;3.78;;
26536;SDS011;14204;51.262;5.488;2023-02-18T10:10:45;14.35;;;3.38;;
26536;SDS011;14204;51.262;5.488;2023-02-18T10:13:12;13.48;;;3.55;;
26536;SDS011;14204;51.262;5.488;2023-02-18T10:15:43;16.10;;;3.53;;
26536;SDS011;14204;51.262;5.488;2023-02-18T10:20:55;13.85;;;3.42;;
26536;SDS011;14204;51.262;5.488;2023-02-18T10:23:38;15.40;;;3.30;;
26536;SDS011;14204;51.262;5.488;2023-02-18T10:26:06;10.80;;;3.07;;
26536;SDS011;14204;51.262;5.488;2023-02-18T10:28:38;13.93;;;2.78;;
26536;SDS011;14204;51.262;5.488;2023-02-18T10:31:05;12.75;;;3.10;;
26536;SDS011;14204;51.262;5.488;2023-02-18T10:44:05;11.65;;;2.53;;
26536;SDS011;14204;51.262;5.488;2023-02-18T10:47:02;9.05;;;2.53;;
26536;SDS011;14204;51.262;5.488;2023-02-18T10:52:27;12.13;;;3.20;;
26536;SDS011;14204;51.262;5.488;2023-02-18T10:55:16;15.57;;;4.32;;
26536;SDS011;14204;51.262;5.488;2023-02-18T10:57:49;13.98;;;2.70;;
26536;SDS011;14204;51.262;5.488;2023-02-18T11:00:18;11.23;;;2.92;;
26536;SDS011;14204;51.262;5.488;2023-02-18T11:02:59;11.80;;;2.92;;
26536;SDS011;14204;51.262;5.488;2023-02-18T11:05:34;10.75;;;3.38;;
26536;SDS011;14204;51.262;5.488;2023-02-18T11:08:00;16.98;;;3.47;;
26536;SDS011;14204;51.262;5.488;2023-02-18T11:10:31;13.85;;;3.40;;
26536;SDS011;14204;51.262;5.488;2023-02-18T11:13:02;12.55;;;4.78;;
26536;SDS011;14204;51.262;5.488;2023-02-18T11:15:31;14.13;;;3.58;;
26536;SDS011;14204;51.262;5.488;2023-02-18T11:17:57;11.52;;;3.65;;
26536;SDS011;14204;51.262;5.488;2023-02-18T11:20:37;10.63;;;3.35;;
26536;SDS011;14204;51.262;5.488;2023-02-18T11:25:39;12.40;;;3.65;;
26536;SDS011;14204;51.262;5.488;2023-02-18T11:28:06;16.67;;;3.92;;
26536;SDS011;14204;51.262;5.488;2023-02-18T11:30:55;9.48;;;3.80;;
26536;SDS011;14204;51.262;5.488;2023-02-18T11:33:32;10.00;;;3.95;;
26536;SDS011;14204;51.262;5.488;2023-02-18T11:36:22;16.45;;;4.25;;
26536;SDS011;14204;51.262;5.488;2023-02-18T11:38:58;13.10;;;4.35;;
26536;SDS011;14204;51.262;5.488;2023-02-18T11:41:40;12.82;;;4.50;;
26536;SDS011;14204;51.262;5.488;2023-02-18T11:44:19;13.95;;;4.57;;
26536;SDS011;14204;51.262;5.488;2023-02-18T11:49:39;11.50;;;3.90;;
26536;SDS011;14204;51.262;5.488;2023-02-18T11:52:18;10.50;;;3.92;;
26536;SDS011;14204;51.262;5.488;2023-02-18T12:06:00;11.30;;;3.72;;
26536;SDS011;14204;51.262;5.488;2023-02-18T12:08:31;10.07;;;4.38;;
26536;SDS011;14204;51.262;5.488;2023-02-18T12:11:06;15.70;;;4.90;;
26536;SDS011;14204;51.262;5.488;2023-02-18T12:13:38;16.23;;;5.65;;
26536;SDS011;14204;51.262;5.488;2023-02-18T12:27:02;15.70;;;6.60;;
26536;SDS011;14204;51.262;5.488;2023-02-18T13:04:51;23.45;;;11.40;;
26536;SDS011;14204;51.262;5.488;2023-02-18T13:13:03;25.63;;;12.85;;
26536;SDS011;14204;51.262;5.488;2023-02-18T13:15:45;23.92;;;13.70;;
26536;SDS011;14204;51.262;5.488;2023-02-18T13:18:25;25.00;;;14.68;;
26536;SDS011;14204;51.262;5.488;2023-02-18T13:21:06;26.83;;;14.27;;
26536;SDS011;14204;51.262;5.488;2023-02-18T13:23:36;23.52;;;14.88;;
26536;SDS011;14204;51.262;5.488;2023-02-18T13:26:08;27.67;;;14.87;;
26536;SDS011;14204;51.262;5.488;2023-02-18T13:29:04;29.08;;;14.35;;
26536;SDS011;14204;51.262;5.488;2023-02-18T13:31:50;24.40;;;14.85;;
26536;SDS011;14204;51.262;5.488;2023-02-18T13:35:16;29.75;;;14.88;;
26536;SDS011;14204;51.262;5.488;2023-02-18T13:39:59;30.17;;;14.57;;
26536;SDS011;14204;51.262;5.488;2023-02-18T13:42:31;20.88;;;13.82;;
26536;SDS011;14204;51.262;5.488;2023-02-18T13:45:03;26.42;;;13.63;;
26536;SDS011;14204;51.262;5.488;2023-02-18T13:47:41;21.67;;;13.63;;
26536;SDS011;14204;51.262;5.488;2023-02-18T13:52:49;23.38;;;12.73;;
26536;SDS011;14204;51.262;5.488;2023-02-18T13:55:21;31.70;;;12.33;;
26536;SDS011;14204;51.262;5.488;2023-02-18T13:57:52;22.52;;;10.23;;
26536;SDS011;14204;51.262;5.488;2023-02-18T14:00:21;21.83;;;9.65;;
26536;SDS011;14204;51.262;5.488;2023-02-18T14:02:59;24.13;;;9.85;;
26536;SDS011;14204;51.262;5.488;2023-02-18T14:05:42;23.27;;;9.20;;
26536;SDS011;14204;51.262;5.488;2023-02-18T14:08:12;19.90;;;9.52;;
26536;SDS011;14204;51.262;5.488;2023-02-18T14:16:24;21.05;;;9.05;;
26536;SDS011;14204;51.262;5.488;2023-02-18T14:18:54;15.88;;;8.20;;
26536;SDS011;14204;51.262;5.488;2023-02-18T14:21:33;23.98;;;8.45;;
26536;SDS011;14204;51.262;5.488;2023-02-18T14:24:08;20.63;;;8.70;;
26536;SDS011;14204;51.262;5.488;2023-02-18T14:26:39;20.25;;;8.52;;
26536;SDS011;14204;51.262;5.488;2023-02-18T14:29:30;15.32;;;6.97;;
26536;SDS011;14204;51.262;5.488;2023-02-18T14:31:56;25.98;;;8.80;;
26536;SDS011;14204;51.262;5.488;2023-02-18T14:43:32;14.23;;;6.88;;
26536;SDS011;14204;51.262;5.488;2023-02-18T14:46:18;19.55;;;7.05;;
26536;SDS011;14204;51.262;5.488;2023-02-18T14:51:43;17.50;;;7.47;;
26536;SDS011;14204;51.262;5.488;2023-02-18T14:54:13;19.42;;;7.47;;
26536;SDS011;14204;51.262;5.488;2023-02-18T14:57:04;15.50;;;7.15;;
26536;SDS011;14204;51.262;5.488;2023-02-18T14:59:33;13.20;;;7.75;;
26536;SDS011;14204;51.262;5.488;2023-02-18T15:02:01;21.05;;;6.75;;
26536;SDS011;14204;51.262;5.488;2023-02-18T15:04:27;17.70;;;7.95;;
26536;SDS011;14204;51.262;5.488;2023-02-18T15:07:01;15.10;;;7.30;;
26536;SDS011;14204;51.262;5.488;2023-02-18T15:09:29;22.15;;;7.03;;
26536;SDS011;14204;51.262;5.488;2023-02-18T15:11:59;19.35;;;7.75;;
26536;SDS011;14204;51.262;5.488;2023-02-18T15:14:29;14.70;;;6.78;;
26536;SDS011;14204;51.262;5.488;2023-02-18T15:16:59;16.88;;;6.53;;
26536;SDS011;14204;51.262;5.488;2023-02-18T15:19:28;14.43;;;6.05;;
26536;SDS011;14204;51.262;5.488;2023-02-18T15:21:59;16.90;;;6.13;;
26536;SDS011;14204;51.262;5.488;2023-02-18T15:24:32;10.30;;;5.65;;
26536;SDS011;14204;51.262;5.488;2023-02-18T15:27:02;14.75;;;5.80;;
26536;SDS011;14204;51.262;5.488;2023-02-18T15:29:35;12.23;;;5.72;;
26536;SDS011;14204;51.262;5.488;2023-02-18T15:32:11;20.10;;;7.18;;
26536;SDS011;14204;51.262;5.488;2023-02-18T15:34:50;18.98;;;6.82;;
26536;SDS011;14204;51.262;5.488;2023-02-18T15:37:17;23.73;;;6.43;;
26536;SDS011;14204;51.262;5.488;2023-02-18T15:39:43;16.23;;;5.72;;
26536;SDS011;14204;51.262;5.488;2023-02-18T15:44:48;13.00;;;6.43;;
26536;SDS011;14204;51.262;5.488;2023-02-18T15:47:17;16.27;;;7.50;;
26536;SDS011;14204;51.262;5.488;2023-02-18T15:49:45;19.33;;;6.07;;
26536;SDS011;14204;51.262;5.488;2023-02-18T15:52:13;14.95;;;6.88;;
26536;SDS011;14204;51.262;5.488;2023-02-18T15:54:40;15.20;;;6.35;;
26536;SDS011;14204;51.262;5.488;2023-02-18T15:57:07;12.85;;;5.75;;
26536;SDS011;14204;51.262;5.488;2023-02-18T15:59:43;15.23;;;6.53;;
26536;SDS011;14204;51.262;5.488;2023-02-18T16:02:14;15.48;;;5.70;;
26536;SDS011;14204;51.262;5.488;2023-02-18T16:04:56;13.20;;;5.78;;
26536;SDS011;14204;51.262;5.488;2023-02-18T16:07:28;14.93;;;6.38;;
26536;SDS011;14204;51.262;5.488;2023-02-18T16:10:14;12.60;;;6.40;;
26536;SDS011;14204;51.262;5.488;2023-02-18T16:12:51;12.55;;;6.85;;
26536;SDS011;14204;51.262;5.488;2023-02-18T16:15:26;15.60;;;6.85;;
26536;SDS011;14204;51.262;5.488;2023-02-18T16:17:55;20.85;;;7.15;;
26536;SDS011;14204;51.262;5.488;2023-02-18T16:22:58;14.10;;;7.55;;
26536;SDS011;14204;51.262;5.488;2023-02-18T16:25:39;15.25;;;9.10;;
26536;SDS011;14204;51.262;5.488;2023-02-18T16:28:13;13.45;;;8.02;;
26536;SDS011;14204;51.262;5.488;2023-02-18T16:30:41;12.25;;;7.82;;
26536;SDS011;14204;51.262;5.488;2023-02-18T16:33:09;13.48;;;8.63;;
26536;SDS011;14204;51.262;5.488;2023-02-18T16:35:35;17.60;;;9.77;;
26536;SDS011;14204;51.262;5.488;2023-02-18T16:38:00;17.00;;;10.30;;
26536;SDS011;14204;51.262;5.488;2023-02-18T16:42:58;15.57;;;10.20;;
26536;SDS011;14204;51.262;5.488;2023-02-18T16:45:35;17.80;;;10.82;;
26536;SDS011;14204;51.262;5.488;2023-02-18T16:48:03;28.95;;;14.00;;
26536;SDS011;14204;51.262;5.488;2023-02-18T16:50:30;26.73;;;14.20;;
26536;SDS011;14204;51.262;5.488;2023-02-18T16:52:57;20.25;;;12.18;;
26536;SDS011;14204;51.262;5.488;2023-02-18T16:55:25;21.02;;;12.18;;
26536;SDS011;14204;51.262;5.488;2023-02-18T16:57:52;20.63;;;13.25;;
26536;SDS011;14204;51.262;5.488;2023-02-18T17:00:19;22.30;;;12.43;;
26536;SDS011;14204;51.262;5.488;2023-02-18T17:02:45;27.17;;;12.93;;
26536;SDS011;14204;51.262;5.488;2023-02-18T17:05:23;28.95;;;13.80;;
26536;SDS011;14204;51.262;5.488;2023-02-18T17:07:51;22.42;;;12.30;;
26536;SDS011;14204;51.262;5.488;2023-02-18T17:10:16;21.65;;;12.93;;
26536;SDS011;14204;51.262;5.488;2023-02-18T17:12:42;22.63;;;11.93;;
26536;SDS011;14204;51.262;5.488;2023-02-18T17:17:57;20.60;;;12.80;;
26536;SDS011;14204;51.262;5.488;2023-02-18T17:20:27;23.08;;;10.85;;
26536;SDS011;14204;51.262;5.488;2023-02-18T17:22:54;22.65;;;12.40;;
26536;SDS011;14204;51.262;5.488;2023-02-18T17:25:29;18.38;;;11.88;;
26536;SDS011;14204;51.262;5.488;2023-02-18T17:27:58;19.90;;;12.35;;
26536;SDS011;14204;51.262;5.488;2023-02-18T17:30:24;20.08;;;9.77;;
26536;SDS011;14204;51.262;5.488;2023-02-18T17:32:50;23.92;;;10.52;;
26536;SDS011;14204;51.262;5.488;2023-02-18T17:35:20;20.20;;;10.52;;
26536;SDS011;14204;51.262;5.488;2023-02-18T17:37:47;19.67;;;10.32;;
26536;SDS011;14204;51.262;5.488;2023-02-18T17:40:17;25.17;;;9.73;;